createdAt,value
2023-08-26T00:00:59.346Z,12.15
2023-08-26T00:03:26.353Z,12.13
2023-08-26T00:05:53.360Z,12.52
2023-08-26T00:08:20.261Z,11.18
2023-08-26T00:10:47.306Z,11.00
2023-08-26T00:13:14.223Z,11.02
2023-08-26T00:15:41.269Z,11.75
2023-08-26T00:18:10.225Z,10.52
2023-08-26T00:20:37.424Z,11.73
2023-08-26T00:23:04.636Z,10.38
2023-08-26T00:25:31.730Z,10.18
2023-08-26T00:27:59.087Z,9.45
2023-08-26T00:30:26.594Z,9.65
2023-08-26T00:32:53.648Z,8.27
2023-08-26T00:35:20.662Z,8.77
2023-08-26T00:37:47.728Z,9.85
2023-08-26T00:40:14.667Z,8.82
2023-08-26T00:42:41.705Z,8.93
2023-08-26T00:45:09.110Z,9.70
2023-08-26T00:47:38.832Z,10.30
2023-08-26T00:50:06.492Z,10.25
2023-08-26T00:52:33.544Z,10.00
2023-08-26T00:55:00.453Z,11.65
2023-08-26T00:57:27.461Z,11.15
2023-08-26T00:59:54.498Z,11.13
2023-08-26T01:02:21.501Z,12.18
2023-08-26T01:04:48.957Z,11.15
2023-08-26T01:07:15.915Z,11.23
2023-08-26T01:09:43.043Z,11.35
2023-08-26T01:12:34.875Z,12.35
2023-08-26T01:15:14.253Z,10.18
2023-08-26T01:17:44.976Z,10.30
2023-08-26T01:20:13.043Z,10.10
2023-08-26T01:22:42.572Z,9.50
2023-08-26T01:25:09.687Z,10.30
2023-08-26T01:27:36.620Z,10.98
2023-08-26T01:30:04.042Z,10.82
2023-08-26T01:32:43.477Z,12.00
2023-08-26T01:35:20.223Z,11.35
2023-08-26T01:37:48.617Z,11.18
2023-08-26T01:40:16.346Z,11.55
2023-08-26T01:42:44.470Z,11.40
2023-08-26T01:45:13.192Z,10.35
2023-08-26T01:47:40.429Z,10.00
2023-08-26T01:50:07.660Z,9.68
2023-08-26T01:52:34.645Z,9.68
2023-08-26T01:55:01.646Z,9.65
2023-08-26T01:57:28.537Z,9.55
2023-08-26T01:59:55.468Z,9.25
2023-08-26T02:02:22.621Z,9.48
2023-08-26T02:04:49.564Z,9.23
2023-08-26T02:07:16.428Z,10.23
2023-08-26T02:09:43.512Z,8.57
2023-08-26T02:12:10.498Z,10.35
2023-08-26T02:14:37.508Z,9.55
2023-08-26T02:17:04.613Z,8.52
2023-08-26T02:19:31.674Z,8.68
2023-08-26T02:21:58.631Z,9.45
2023-08-26T02:24:25.606Z,9.80
2023-08-26T02:26:57.565Z,8.40
2023-08-26T02:29:24.512Z,9.10
2023-08-26T02:31:51.421Z,8.80
2023-08-26T02:34:18.406Z,9.27
2023-08-26T02:36:45.253Z,9.65
2023-08-26T02:39:12.364Z,10.80
2023-08-26T02:41:39.330Z,8.52
2023-08-26T02:44:06.244Z,7.80
2023-08-26T02:46:33.156Z,7.32
2023-08-26T02:49:00.151Z,7.20
2023-08-26T02:51:27.165Z,8.32
2023-08-26T02:53:54.094Z,6.55
2023-08-26T02:56:20.980Z,6.55
2023-08-26T02:58:48.176Z,5.82
2023-08-26T03:01:17.711Z,6.88
2023-08-26T03:03:44.949Z,6.43
2023-08-26T03:06:12.810Z,6.97
2023-08-26T03:08:39.808Z,7.03
2023-08-26T03:11:10.668Z,6.40
2023-08-26T03:13:37.586Z,6.47
2023-08-26T03:16:11.742Z,6.28
2023-08-26T03:18:41.947Z,8.82
2023-08-26T03:21:10.365Z,7.07
2023-08-26T03:23:37.648Z,6.07
2023-08-26T03:26:05.783Z,7.00
2023-08-26T03:28:32.832Z,6.00
2023-08-26T03:31:08.903Z,6.22
2023-08-26T03:33:36.165Z,6.93
2023-08-26T03:36:08.867Z,6.60
2023-08-26T03:38:36.648Z,6.90
2023-08-26T03:41:04.825Z,7.70
2023-08-26T03:43:32.446Z,8.00
2023-08-26T03:46:00.219Z,6.90
2023-08-26T03:48:27.320Z,7.32
2023-08-26T03:50:56.806Z,7.68
2023-08-26T03:53:24.151Z,6.93
2023-08-26T03:55:51.255Z,8.02
2023-08-26T03:58:18.175Z,6.88
2023-08-26T04:00:48.005Z,8.27
2023-08-26T04:03:14.969Z,7.18
2023-08-26T04:05:42.171Z,7.70
2023-08-26T04:08:09.167Z,7.30
2023-08-26T04:10:36.192Z,7.50
2023-08-26T04:13:27.797Z,7.32
2023-08-26T04:15:57.432Z,6.80
2023-08-26T04:18:25.021Z,6.80
2023-08-26T04:20:53.620Z,6.10
2023-08-26T04:23:20.705Z,6.93
2023-08-26T04:25:59.165Z,5.55
2023-08-26T04:28:26.067Z,5.55
2023-08-26T04:30:53.164Z,6.05
2023-08-26T04:33:21.676Z,5.32
2023-08-26T04:35:48.795Z,5.32
2023-08-26T04:38:16.464Z,5.10
2023-08-26T04:40:43.453Z,4.05
2023-08-26T04:43:11.943Z,4.55
2023-08-26T04:45:39.642Z,4.82
2023-08-26T04:48:09.611Z,4.90
2023-08-26T04:50:36.690Z,4.35
2023-08-26T04:53:04.229Z,6.03
2023-08-26T04:55:34.008Z,5.63
2023-08-26T04:58:01.499Z,5.10
2023-08-26T05:00:28.452Z,5.50
2023-08-26T05:02:55.441Z,5.65
2023-08-26T05:05:22.384Z,5.55
2023-08-26T05:07:49.369Z,5.30
2023-08-26T05:10:16.288Z,5.60
2023-08-26T05:12:43.184Z,4.85
2023-08-26T05:15:10.440Z,4.45
2023-08-26T05:17:37.530Z,5.82
2023-08-26T05:20:05.428Z,5.43
2023-08-26T05:22:32.369Z,4.32
2023-08-26T05:24:59.385Z,4.97
2023-08-26T05:27:28.046Z,4.78
2023-08-26T05:29:55.376Z,5.07
2023-08-26T05:32:22.381Z,6.18
2023-08-26T05:34:49.468Z,5.20
2023-08-26T05:37:16.393Z,6.43
2023-08-26T05:39:43.353Z,4.93
2023-08-26T05:42:10.517Z,5.55
2023-08-26T05:44:37.484Z,6.13
2023-08-26T05:47:04.666Z,6.35
2023-08-26T05:49:31.798Z,5.43
2023-08-26T05:51:58.752Z,4.80
2023-08-26T05:54:25.783Z,5.68
2023-08-26T05:56:52.674Z,4.32
2023-08-26T05:59:19.650Z,3.97
2023-08-26T06:01:46.884Z,4.97
2023-08-26T06:04:13.939Z,4.28
2023-08-26T06:06:40.914Z,4.80
2023-08-26T06:09:10.427Z,5.10
2023-08-26T06:11:39.264Z,4.47
2023-08-26T06:14:06.218Z,4.90
2023-08-26T06:16:33.275Z,4.63
2023-08-26T06:19:00.281Z,6.30
2023-08-26T06:21:27.173Z,4.78
2023-08-26T06:23:54.988Z,3.90
2023-08-26T06:26:21.983Z,4.32
2023-08-26T06:28:48.951Z,3.85
2023-08-26T06:31:15.840Z,4.03
2023-08-26T06:33:43.884Z,3.08
2023-08-26T06:36:10.847Z,6.00
2023-08-26T06:38:37.787Z,3.58
2023-08-26T06:41:04.909Z,4.45
2023-08-26T06:43:31.906Z,3.38
2023-08-26T06:46:00.056Z,3.70
2023-08-26T06:48:27.098Z,3.97
2023-08-26T06:50:53.999Z,4.30
2023-08-26T06:53:23.946Z,4.28
2023-08-26T06:55:53.041Z,3.28
2023-08-26T06:58:21.029Z,4.03
2023-08-26T07:00:48.620Z,3.17
2023-08-26T07:03:16.052Z,3.15
2023-08-26T07:05:44.733Z,3.75
2023-08-26T07:08:11.827Z,3.42
2023-08-26T07:10:38.888Z,3.33
2023-08-26T07:13:06.186Z,2.90
2023-08-26T07:15:33.251Z,3.45
2023-08-26T07:18:00.646Z,4.30
2023-08-26T07:20:28.218Z,3.05
2023-08-26T07:22:55.225Z,3.97
2023-08-26T07:25:22.769Z,3.72
2023-08-26T07:27:49.776Z,2.95
2023-08-26T07:30:16.816Z,2.72
2023-08-26T07:32:43.884Z,2.80
2023-08-26T07:35:11.551Z,4.28
2023-08-26T07:37:38.781Z,4.72
2023-08-26T07:40:09.479Z,6.50
2023-08-26T07:42:36.827Z,5.38
2023-08-26T07:45:04.183Z,6.22
2023-08-26T07:50:01.047Z,8.25
2023-08-26T07:52:30.108Z,9.43
2023-08-26T07:54:57.525Z,9.23
2023-08-26T07:57:24.545Z,8.57
2023-08-26T07:59:51.515Z,10.07
2023-08-26T08:02:18.983Z,9.30
2023-08-26T08:04:45.940Z,10.00
2023-08-26T08:07:13.055Z,10.85
2023-08-26T08:09:40.482Z,10.63
2023-08-26T08:12:09.547Z,10.18
2023-08-26T08:14:36.597Z,10.30
2023-08-26T08:17:04.567Z,11.25
2023-08-26T08:19:31.732Z,11.15
2023-08-26T08:21:58.691Z,10.50
2023-08-26T08:24:25.572Z,9.93
2023-08-26T08:26:52.574Z,11.57
2023-08-26T08:29:19.563Z,10.25
2023-08-26T08:31:46.646Z,9.98
2023-08-26T08:34:13.718Z,11.18
2023-08-26T08:36:40.719Z,10.82
2023-08-26T08:39:07.699Z,9.95
2023-08-26T08:41:37.563Z,10.88
2023-08-26T08:44:12.037Z,9.90
2023-08-26T08:46:40.277Z,9.75
2023-08-26T08:49:08.233Z,8.82
2023-08-26T08:51:37.349Z,9.27
2023-08-26T08:54:05.492Z,8.52
2023-08-26T08:56:35.909Z,8.52
2023-08-26T08:59:05.568Z,9.07
2023-08-26T09:01:32.662Z,7.97
2023-08-26T09:03:59.625Z,9.32
2023-08-26T09:06:26.934Z,8.07
2023-08-26T09:08:58.299Z,6.88
2023-08-26T09:11:25.246Z,6.22
2023-08-26T09:13:52.567Z,6.97
2023-08-26T09:16:39.419Z,5.65
2023-08-26T09:19:07.246Z,5.13
2023-08-26T09:21:34.260Z,5.65
2023-08-26T09:24:02.060Z,5.38
2023-08-26T09:26:28.940Z,6.10
2023-08-26T09:28:57.008Z,6.13
2023-08-26T09:31:24.061Z,5.18
2023-08-26T09:34:01.780Z,5.93
2023-08-26T09:36:49.522Z,6.03
2023-08-26T09:39:17.208Z,6.32
2023-08-26T09:41:45.387Z,4.53
2023-08-26T09:44:13.466Z,5.78
2023-08-26T09:46:42.514Z,5.30
2023-08-26T09:49:14.364Z,4.07
2023-08-26T09:51:52.400Z,4.38
2023-08-26T09:54:21.136Z,5.05
2023-08-26T09:56:49.341Z,4.50
2023-08-26T09:59:17.072Z,4.35
2023-08-26T10:01:44.249Z,4.20
2023-08-26T10:04:21.858Z,3.95
2023-08-26T10:06:56.909Z,4.35
2023-08-26T10:09:26.926Z,5.10
2023-08-26T10:11:56.603Z,4.15
2023-08-26T10:14:26.795Z,4.68
2023-08-26T10:16:56.531Z,3.92
2023-08-26T10:19:24.565Z,4.88
2023-08-26T10:21:53.648Z,4.68
2023-08-26T10:24:21.173Z,2.38
2023-08-26T10:26:49.098Z,1.80
2023-08-26T10:29:17.108Z,2.35
2023-08-26T10:31:47.237Z,2.70
2023-08-26T10:34:15.853Z,2.90
2023-08-26T10:36:47.916Z,4.60
2023-08-26T10:39:20.454Z,1.77
2023-08-26T10:42:25.088Z,1.67
2023-08-26T10:44:56.917Z,3.40
2023-08-26T10:47:39.864Z,1.40
2023-08-26T10:50:27.542Z,1.45
2023-08-26T10:52:59.850Z,1.70
2023-08-26T10:55:34.479Z,1.40
2023-08-26T10:58:07.712Z,2.17
2023-08-26T11:00:35.616Z,1.10
2023-08-26T11:03:04.298Z,2.28
2023-08-26T11:05:31.872Z,0.93
2023-08-26T11:08:02.071Z,0.90
2023-08-26T11:10:36.857Z,1.38
2023-08-26T11:13:05.103Z,0.88
2023-08-26T11:15:39.805Z,1.65
2023-08-26T11:18:11.941Z,1.15
2023-08-26T11:20:39.785Z,0.82
2023-08-26T11:23:07.656Z,0.82
2023-08-26T11:25:35.527Z,1.50
2023-08-26T11:28:10.203Z,1.55
2023-08-26T11:30:38.503Z,1.02
2023-08-26T11:33:13.363Z,1.70
2023-08-26T11:35:49.431Z,1.33
2023-08-26T11:38:24.505Z,2.50
2023-08-26T11:40:51.416Z,2.65
2023-08-26T11:43:19.165Z,2.10
2023-08-26T11:45:48.138Z,2.20
2023-08-26T11:48:15.920Z,1.85
2023-08-26T11:50:43.604Z,2.30
2023-08-26T11:53:11.080Z,2.10
2023-08-26T11:55:40.105Z,2.25
2023-08-26T11:58:07.216Z,2.78
2023-08-26T12:00:34.490Z,2.60
2023-08-26T12:03:04.013Z,4.47
2023-08-26T12:05:43.474Z,3.13
2023-08-26T12:08:15.250Z,3.40
2023-08-26T12:10:42.478Z,4.28
2023-08-26T12:13:09.504Z,3.83
2023-08-26T12:15:40.705Z,4.97
2023-08-26T12:18:08.079Z,4.45
2023-08-26T12:20:35.764Z,3.92
2023-08-26T12:23:07.408Z,5.07
2023-08-26T12:25:43.615Z,4.28
2023-08-26T12:28:26.145Z,3.38
2023-08-26T12:30:53.646Z,3.20
2023-08-26T12:33:25.677Z,3.00
2023-08-26T12:35:54.495Z,2.22
2023-08-26T12:38:21.894Z,2.75
2023-08-26T12:40:50.305Z,2.95
2023-08-26T12:43:20.105Z,2.50
2023-08-26T12:45:48.102Z,2.03
2023-08-26T12:48:21.870Z,1.45
2023-08-26T12:51:00.844Z,1.50
2023-08-26T12:53:27.833Z,1.08
2023-08-26T12:55:54.882Z,1.98
2023-08-26T12:58:26.203Z,1.38
2023-08-26T13:00:53.341Z,0.90
2023-08-26T13:03:20.585Z,1.20
2023-08-26T13:05:49.894Z,2.20
2023-08-26T13:08:17.068Z,0.73
2023-08-26T13:10:44.035Z,0.90
2023-08-26T13:13:11.077Z,1.20
2023-08-26T13:15:39.557Z,0.80
2023-08-26T13:18:06.848Z,1.23
2023-08-26T13:20:34.425Z,0.80
2023-08-26T13:23:04.173Z,0.80
2023-08-26T13:25:31.492Z,1.42
2023-08-26T13:27:58.820Z,0.75
2023-08-26T13:30:26.018Z,1.40
2023-08-26T13:32:53.159Z,1.00
2023-08-26T13:35:20.163Z,0.75
2023-08-26T13:37:47.204Z,1.20
2023-08-26T13:40:14.248Z,0.95
2023-08-26T13:42:41.232Z,1.27
2023-08-26T13:45:09.058Z,0.90
2023-08-26T13:47:36.177Z,0.88
2023-08-26T13:50:03.186Z,0.93
2023-08-26T13:52:30.200Z,0.90
2023-08-26T13:54:57.139Z,1.10
2023-08-26T13:57:24.083Z,1.25
2023-08-26T13:59:51.533Z,0.73
2023-08-26T14:02:18.945Z,1.48
2023-08-26T14:04:46.089Z,0.75
2023-08-26T14:07:13.103Z,1.67
2023-08-26T14:09:40.027Z,1.08
2023-08-26T14:12:07.399Z,1.98
2023-08-26T14:14:34.402Z,0.90
2023-08-26T14:17:01.359Z,1.63
2023-08-26T14:19:28.383Z,2.30
2023-08-26T14:21:55.347Z,1.70
2023-08-26T14:24:22.308Z,1.40
2023-08-26T14:26:49.197Z,1.75
2023-08-26T14:29:16.217Z,1.88
2023-08-26T14:31:43.305Z,1.85
2023-08-26T14:34:11.200Z,1.40
2023-08-26T14:36:40.910Z,1.70
2023-08-26T14:39:07.901Z,2.00
2023-08-26T14:41:34.842Z,1.50
2023-08-26T14:44:01.899Z,2.40
2023-08-26T14:46:28.879Z,2.25
2023-08-26T14:48:55.792Z,2.30
2023-08-26T14:51:22.814Z,2.20
2023-08-26T14:53:49.830Z,2.30
2023-08-26T14:56:16.761Z,2.10
2023-08-26T14:58:43.784Z,2.70
2023-08-26T15:01:10.844Z,2.50
2023-08-26T15:03:37.891Z,1.80
2023-08-26T15:06:05.022Z,2.13
2023-08-26T15:08:32.239Z,2.17
2023-08-26T15:10:59.471Z,1.92
2023-08-26T15:13:26.442Z,1.23
2023-08-26T15:15:53.714Z,1.25
2023-08-26T15:18:21.513Z,1.80
2023-08-26T15:20:50.761Z,1.42
2023-08-26T15:23:19.060Z,1.83
2023-08-26T15:25:47.266Z,1.20
2023-08-26T15:28:15.874Z,0.95
2023-08-26T15:30:54.081Z,0.77
2023-08-26T15:33:21.647Z,0.80
2023-08-26T15:35:53.845Z,0.90
2023-08-26T15:38:21.718Z,0.82
2023-08-26T15:40:58.206Z,0.70
2023-08-26T15:43:25.693Z,0.77
2023-08-26T15:45:53.471Z,0.70
2023-08-26T15:48:21.779Z,1.30
2023-08-26T15:50:49.374Z,1.10
2023-08-26T15:53:18.174Z,1.77
2023-08-26T15:55:46.440Z,1.10
2023-08-26T15:58:15.439Z,1.08
2023-08-26T16:00:43.128Z,1.83
2023-08-26T16:03:10.464Z,1.20
2023-08-26T16:05:39.072Z,1.50
2023-08-26T16:08:07.671Z,2.00
2023-08-26T16:10:35.051Z,1.05
2023-08-26T16:13:02.053Z,1.27
2023-08-26T16:15:29.529Z,1.10
2023-08-26T16:17:58.322Z,0.90
2023-08-26T16:20:25.324Z,0.90
2023-08-26T16:22:52.419Z,0.60
2023-08-26T16:25:19.494Z,0.73
2023-08-26T16:27:46.858Z,1.45
2023-08-26T16:30:14.169Z,1.02
2023-08-26T16:32:43.031Z,2.60
2023-08-26T16:35:10.720Z,1.05
2023-08-26T16:37:38.148Z,0.98
2023-08-26T16:40:05.563Z,1.88
2023-08-26T16:42:32.632Z,1.58
2023-08-26T16:44:59.734Z,1.60
2023-08-26T16:47:26.807Z,2.75
2023-08-26T16:49:53.766Z,1.00
2023-08-26T16:52:20.910Z,1.00
2023-08-26T16:54:52.462Z,1.88
2023-08-26T16:57:19.445Z,1.30
2023-08-26T16:59:46.448Z,1.00
2023-08-26T17:02:14.588Z,1.27
2023-08-26T17:04:41.579Z,1.55
2023-08-26T17:07:08.872Z,1.10
2023-08-26T17:09:35.809Z,3.60
2023-08-26T17:12:02.942Z,1.60
2023-08-26T17:14:29.968Z,2.00
2023-08-26T17:16:57.081Z,1.98
2023-08-26T17:19:24.138Z,3.15
2023-08-26T17:21:51.469Z,1.65
2023-08-26T17:24:19.088Z,2.22
2023-08-26T17:26:46.273Z,2.75
2023-08-26T17:29:13.350Z,2.00
2023-08-26T17:31:40.344Z,2.47
2023-08-26T17:34:07.313Z,3.53
2023-08-26T17:36:34.338Z,3.50
2023-08-26T17:39:01.349Z,1.77
2023-08-26T17:41:28.325Z,2.80
2023-08-26T17:43:55.313Z,2.72
2023-08-26T17:46:22.878Z,3.17
2023-08-26T17:48:50.845Z,2.88
2023-08-26T17:51:17.892Z,3.38
2023-08-26T17:53:44.969Z,3.20
2023-08-26T17:56:12.881Z,2.35
2023-08-26T17:58:40.864Z,1.90
2023-08-26T18:01:08.264Z,2.42
2023-08-26T18:03:35.431Z,2.55
2023-08-26T18:06:03.012Z,2.10
2023-08-26T18:08:30.092Z,2.10
2023-08-26T18:10:58.912Z,2.38
2023-08-26T18:13:26.141Z,2.00
2023-08-26T18:15:53.224Z,2.25
2023-08-26T18:18:20.478Z,2.80
2023-08-26T18:20:47.521Z,2.45
2023-08-26T18:23:14.505Z,4.72
2023-08-26T18:25:41.384Z,2.60
2023-08-26T18:28:08.709Z,2.25
2023-08-26T18:30:35.789Z,2.10
2023-08-26T18:33:04.417Z,2.50
2023-08-26T18:35:31.854Z,2.83
2023-08-26T18:37:59.002Z,2.42
2023-08-26T18:40:26.433Z,3.10
2023-08-26T18:42:54.433Z,2.38
2023-08-26T18:45:21.704Z,3.13
2023-08-26T18:47:48.860Z,2.95
2023-08-26T18:50:15.999Z,3.78
2023-08-26T18:52:42.934Z,3.33
2023-08-26T18:55:10.180Z,3.70
2023-08-26T18:57:37.121Z,3.60
2023-08-26T19:00:04.932Z,3.75
2023-08-26T19:02:32.047Z,4.15
2023-08-26T19:04:59.282Z,4.75
2023-08-26T19:07:26.320Z,5.28
2023-08-26T19:09:53.359Z,5.00
2023-08-26T19:12:20.345Z,5.30
2023-08-26T19:14:47.411Z,4.40
2023-08-26T19:17:14.919Z,3.97
2023-08-26T19:19:41.898Z,5.40
2023-08-26T19:22:08.823Z,6.07
2023-08-26T19:24:35.864Z,4.75
2023-08-26T19:27:03.139Z,4.55
2023-08-26T19:29:32.027Z,4.30
2023-08-26T19:31:58.980Z,4.60
2023-08-26T19:34:25.927Z,4.72
2023-08-26T19:36:53.065Z,5.78
2023-08-26T19:39:20.197Z,4.05
2023-08-26T19:41:47.143Z,3.38
2023-08-26T19:44:14.090Z,4.35
2023-08-26T19:46:41.180Z,5.05
2023-08-26T19:49:08.645Z,3.72
2023-08-26T19:51:36.713Z,3.90
2023-08-26T19:54:04.564Z,4.35
2023-08-26T19:56:31.528Z,4.07
2023-08-26T19:58:58.404Z,4.35
2023-08-26T20:01:26.920Z,3.47
2023-08-26T20:03:54.027Z,3.63
2023-08-26T20:06:21.218Z,3.65
2023-08-26T20:08:48.187Z,3.72
2023-08-26T20:11:15.249Z,4.38
2023-08-26T20:13:42.177Z,3.45
2023-08-26T20:16:09.243Z,3.97
2023-08-26T20:18:36.447Z,4.18
2023-08-26T20:21:03.643Z,3.65
2023-08-26T20:23:30.986Z,4.75
2023-08-26T20:26:01.667Z,4.70
2023-08-26T20:28:29.183Z,5.18
2023-08-26T20:31:04.398Z,5.00
2023-08-26T20:33:33.031Z,3.45
2023-08-26T20:36:01.593Z,4.38
2023-08-26T20:38:28.708Z,3.83
2023-08-26T20:41:03.191Z,3.65
2023-08-26T20:43:30.221Z,4.63
2023-08-26T20:45:58.166Z,6.05
2023-08-26T20:48:26.155Z,4.47
2023-08-26T20:50:54.117Z,5.60
2023-08-26T20:53:21.542Z,6.00
2023-08-26T20:55:49.138Z,5.55
2023-08-26T20:58:16.172Z,6.20
2023-08-26T21:00:43.129Z,5.50
2023-08-26T21:03:13.029Z,5.50
2023-08-26T21:05:40.066Z,5.65
2023-08-26T21:08:07.420Z,6.65
2023-08-26T21:10:34.487Z,6.53
2023-08-26T21:13:01.730Z,6.30
2023-08-26T21:15:28.957Z,6.45
2023-08-26T21:17:55.993Z,6.97
2023-08-26T21:20:23.044Z,7.18
2023-08-26T21:22:49.979Z,6.57
2023-08-26T21:25:16.846Z,6.90
2023-08-26T21:27:43.860Z,6.70
2023-08-26T21:30:11.099Z,6.85
2023-08-26T21:32:38.293Z,7.40
2023-08-26T21:35:05.849Z,7.10
2023-08-26T21:37:34.638Z,7.32
2023-08-26T21:40:01.659Z,8.18
2023-08-26T21:42:28.744Z,6.85
2023-08-26T21:44:55.727Z,5.85
2023-08-26T21:47:22.666Z,6.55
2023-08-26T21:49:51.421Z,6.50
2023-08-26T21:52:18.400Z,6.80
2023-08-26T21:54:45.419Z,6.53
2023-08-26T21:57:12.350Z,7.22
2023-08-26T21:59:39.287Z,6.72
2023-08-26T22:02:06.322Z,6.00
2023-08-26T22:04:33.339Z,5.65
2023-08-26T22:07:00.278Z,6.22
2023-08-26T22:09:27.282Z,7.28
2023-08-26T22:11:54.685Z,7.28
2023-08-26T22:14:21.725Z,7.10
2023-08-26T22:16:48.877Z,6.22
2023-08-26T22:19:15.943Z,7.13
2023-08-26T22:21:42.969Z,7.20
2023-08-26T22:24:10.166Z,7.13
2023-08-26T22:26:37.307Z,6.95
2023-08-26T22:29:04.287Z,7.10
2023-08-26T22:31:31.296Z,7.05
2023-08-26T22:33:58.396Z,8.30
2023-08-26T22:36:25.315Z,8.38
2023-08-26T22:38:52.288Z,7.32
2023-08-26T22:41:19.273Z,8.40
2023-08-26T22:43:48.348Z,7.07
2023-08-26T22:46:15.392Z,8.18
2023-08-26T22:48:42.657Z,8.93
2023-08-26T22:51:09.567Z,8.10
2023-08-26T22:53:38.905Z,9.40
2023-08-26T22:56:07.234Z,9.63
2023-08-26T22:58:34.434Z,10.27
2023-08-26T23:01:04.673Z,7.70
2023-08-26T23:03:31.996Z,9.75
2023-08-26T23:06:06.104Z,8.90
2023-08-26T23:08:33.129Z,8.55
2023-08-26T23:11:01.986Z,9.23
2023-08-26T23:13:29.000Z,8.80
2023-08-26T23:15:56.003Z,9.63
2023-08-26T23:18:23.134Z,10.77
2023-08-26T23:20:50.082Z,9.80
2023-08-26T23:23:17.140Z,8.65
2023-08-26T23:25:44.485Z,8.63
2023-08-26T23:28:11.587Z,9.63
2023-08-26T23:30:42.763Z,9.35
2023-08-26T23:33:10.833Z,8.52
2023-08-26T23:35:37.967Z,8.20
2023-08-26T23:38:05.551Z,9.20
2023-08-26T23:40:32.598Z,9.00
2023-08-26T23:42:59.809Z,8.40
2023-08-26T23:45:27.260Z,8.20
2023-08-26T23:47:55.083Z,8.07
2023-08-26T23:50:22.409Z,8.68
2023-08-26T23:52:52.246Z,8.93
2023-08-26T23:55:19.162Z,9.00
2023-08-26T23:57:46.079Z,8.70
